sensor_id;sensor_type;location;lat;lon;timestamp;pressure;altitude;pressure_sealevel;temperature;humidity
16194;BME280;8204;53.582;10.080;2022-09-16T00:00:49;98607.13;;;13.44;100.00
16194;BME280;8204;53.582;10.080;2022-09-16T00:03:16;98613.66;;;13.41;100.00
16194;BME280;8204;53.582;10.080;2022-09-16T00:05:44;98622.34;;;13.30;100.00
16194;BME280;8204;53.582;10.080;2022-09-16T00:08:13;98613.78;;;13.35;100.00
16194;BME280;8204;53.582;10.080;2022-09-16T00:10:40;98611.34;;;13.33;100.00
16194;BME280;8204;53.582;10.080;2022-09-16T00:13:08;98613.53;;;13.25;100.00
16194;BME280;8204;53.582;10.080;2022-09-16T00:15:36;98603.94;;;13.30;100.00
16194;BME280;8204;53.582;10.080;2022-09-16T00:18:04;98615.47;;;13.29;100.00
16194;BME280;8204;53.582;10.080;2022-09-16T00:20:31;98622.34;;;13.30;100.00
16194;BME280;8204;53.582;10.080;2022-09-16T00:22:57;98626.34;;;13.33;100.00
16194;BME280;8204;53.582;10.080;2022-09-16T00:25:25;98632.09;;;13.30;100.00
16194;BME280;8204;53.582;10.080;2022-09-16T00:27:52;98615.72;;;13.28;100.00
16194;BME280;8204;53.582;10.080;2022-09-16T00:30:18;98619.38;;;13.27;100.00
16194;BME280;8204;53.582;10.080;2022-09-16T00:32:45;98602.69;;;13.33;100.00
16194;BME280;8204;53.582;10.080;2022-09-16T00:35:11;98617.44;;;13.34;100.00
16194;BME280;8204;53.582;10.080;2022-09-16T00:37:38;98612.28;;;13.27;100.00
16194;BME280;8204;53.582;10.080;2022-09-16T00:40:05;98603.00;;;13.25;100.00
16194;BME280;8204;53.582;10.080;2022-09-16T00:42:37;98600.72;;;13.28;100.00
16194;BME280;8204;53.582;10.080;2022-09-16T00:45:11;98595.59;;;13.22;100.00
16194;BME280;8204;53.582;10.080;2022-09-16T00:47:41;98551.44;;;13.24;100.00
16194;BME280;8204;53.582;10.080;2022-09-16T00:50:11;98474.47;;;13.28;100.00
16194;BME280;8204;53.582;10.080;2022-09-16T00:52:39;98405.75;;;13.25;100.00
16194;BME280;8204;53.582;10.080;2022-09-16T00:55:09;98355.00;;;13.24;100.00
16194;BME280;8204;53.582;10.080;2022-09-16T00:57:40;98321.41;;;13.15;100.00
16194;BME280;8204;53.582;10.080;2022-09-16T01:00:08;98250.88;;;13.12;100.00
16194;BME280;8204;53.582;10.080;2022-09-16T01:02:38;98214.59;;;12.98;100.00
16194;BME280;8204;53.582;10.080;2022-09-16T01:05:07;98150.66;;;13.09;100.00
16194;BME280;8204;53.582;10.080;2022-09-16T01:07:39;98135.34;;;13.06;100.00
16194;BME280;8204;53.582;10.080;2022-09-16T01:10:08;98122.44;;;13.04;100.00
16194;BME280;8204;53.582;10.080;2022-09-16T01:12:35;98088.81;;;13.06;100.00
16194;BME280;8204;53.582;10.080;2022-09-16T01:15:04;98057.91;;;13.13;100.00
16194;BME280;8204;53.582;10.080;2022-09-16T01:17:45;98040.06;;;13.15;100.00
16194;BME280;8204;53.582;10.080;2022-09-16T01:20:39;98015.06;;;13.13;100.00
16194;BME280;8204;53.582;10.080;2022-09-16T01:23:28;98012.50;;;13.17;100.00
16194;BME280;8204;53.582;10.080;2022-09-16T01:26:10;97998.84;;;13.20;100.00
16194;BME280;8204;53.582;10.080;2022-09-16T01:28:58;98000.63;;;13.15;100.00
16194;BME280;8204;53.582;10.080;2022-09-16T01:31:34;98038.47;;;12.98;100.00
16194;BME280;8204;53.582;10.080;2022-09-16T01:34:11;98036.19;;;13.01;100.00
16194;BME280;8204;53.582;10.080;2022-09-16T01:36:49;98027.78;;;13.04;100.00
16194;BME280;8204;53.582;10.080;2022-09-16T01:39:27;98037.78;;;13.02;100.00
16194;BME280;8204;53.582;10.080;2022-09-16T01:42:10;98030.53;;;13.09;100.00
16194;BME280;8204;53.582;10.080;2022-09-16T01:44:46;98044.84;;;13.02;100.00
16194;BME280;8204;53.582;10.080;2022-09-16T01:47:19;98057.13;;;12.96;100.00
16194;BME280;8204;53.582;10.080;2022-09-16T01:49:55;98052.91;;;12.95;100.00
16194;BME280;8204;53.582;10.080;2022-09-16T01:52:30;98059.22;;;12.83;100.00
16194;BME280;8204;53.582;10.080;2022-09-16T01:55:01;98063.00;;;12.87;100.00
16194;BME280;8204;53.582;10.080;2022-09-16T01:57:35;98066.31;;;12.82;100.00
16194;BME280;8204;53.582;10.080;2022-09-16T02:00:06;98072.94;;;12.57;100.00
16194;BME280;8204;53.582;10.080;2022-09-16T02:02:40;98061.94;;;12.71;100.00
16194;BME280;8204;53.582;10.080;2022-09-16T02:05:12;98059.75;;;12.68;100.00
16194;BME280;8204;53.582;10.080;2022-09-16T02:07:45;98048.81;;;12.71;100.00
16194;BME280;8204;53.582;10.080;2022-09-16T02:10:16;98055.88;;;12.71;100.00
16194;BME280;8204;53.582;10.080;2022-09-16T02:12:47;98050.69;;;12.76;100.00
16194;BME280;8204;53.582;10.080;2022-09-16T02:15:17;98059.94;;;12.78;100.00
16194;BME280;8204;53.582;10.080;2022-09-16T02:17:50;98056.38;;;12.84;100.00
16194;BME280;8204;53.582;10.080;2022-09-16T02:20:22;98074.78;;;12.84;100.00
16194;BME280;8204;53.582;10.080;2022-09-16T02:22:53;98078.47;;;12.72;100.00
16194;BME280;8204;53.582;10.080;2022-09-16T02:25:22;98082.47;;;12.74;100.00
16194;BME280;8204;53.582;10.080;2022-09-16T02:27:49;98086.03;;;12.68;100.00
16194;BME280;8204;53.582;10.080;2022-09-16T02:30:20;98082.13;;;12.71;100.00
16194;BME280;8204;53.582;10.080;2022-09-16T02:32:51;98074.50;;;12.69;100.00
16194;BME280;8204;53.582;10.080;2022-09-16T02:35:21;98070.94;;;12.75;100.00
16194;BME280;8204;53.582;10.080;2022-09-16T02:37:49;98081.72;;;12.62;100.00
16194;BME280;8204;53.582;10.080;2022-09-16T02:40:19;98090.06;;;12.59;100.00
16194;BME280;8204;53.582;10.080;2022-09-16T02:42:48;98078.63;;;12.65;100.00
16194;BME280;8204;53.582;10.080;2022-09-16T02:45:14;98093.34;;;12.66;100.00
16194;BME280;8204;53.582;10.080;2022-09-16T02:47:49;98090.41;;;12.63;100.00
16194;BME280;8204;53.582;10.080;2022-09-16T02:50:25;98093.84;;;12.63;100.00
16194;BME280;8204;53.582;10.080;2022-09-16T02:52:58;98065.41;;;12.60;100.00
16194;BME280;8204;53.582;10.080;2022-09-16T02:55:33;98047.00;;;12.60;100.00
16194;BME280;8204;53.582;10.080;2022-09-16T02:58:03;98050.78;;;12.64;100.00
16194;BME280;8204;53.582;10.080;2022-09-16T03:00:32;98057.28;;;12.62;100.00
16194;BME280;8204;53.582;10.080;2022-09-16T03:03:03;98052.34;;;12.65;100.00
16194;BME280;8204;53.582;10.080;2022-09-16T03:05:29;98053.06;;;12.61;100.00
16194;BME280;8204;53.582;10.080;2022-09-16T03:07:56;98067.53;;;12.47;100.00
16194;BME280;8204;53.582;10.080;2022-09-16T03:10:30;98047.50;;;12.57;100.00
16194;BME280;8204;53.582;10.080;2022-09-16T03:13:02;98044.38;;;12.60;100.00
16194;BME280;8204;53.582;10.080;2022-09-16T03:15:50;98058.34;;;12.61;100.00
16194;BME280;8204;53.582;10.080;2022-09-16T03:18:33;98074.31;;;12.59;100.00
16194;BME280;8204;53.582;10.080;2022-09-16T03:21:12;98076.28;;;12.52;100.00
16194;BME280;8204;53.582;10.080;2022-09-16T03:23:44;98056.88;;;12.53;100.00
16194;BME280;8204;53.582;10.080;2022-09-16T03:26:19;98054.81;;;12.55;100.00
16194;BME280;8204;53.582;10.080;2022-09-16T03:28:57;98059.41;;;12.48;100.00
16194;BME280;8204;53.582;10.080;2022-09-16T03:31:28;98060.50;;;12.52;100.00
16194;BME280;8204;53.582;10.080;2022-09-16T03:34:03;98061.00;;;12.49;100.00
16194;BME280;8204;53.582;10.080;2022-09-16T03:36:35;98059.66;;;12.47;100.00
16194;BME280;8204;53.582;10.080;2022-09-16T03:39:03;98065.31;;;12.55;100.00
16194;BME280;8204;53.582;10.080;2022-09-16T03:41:31;98060.06;;;12.55;100.00
16194;BME280;8204;53.582;10.080;2022-09-16T03:43:59;98082.97;;;12.43;100.00
16194;BME280;8204;53.582;10.080;2022-09-16T03:46:26;98068.88;;;12.49;100.00
16194;BME280;8204;53.582;10.080;2022-09-16T03:48:53;98084.56;;;12.44;100.00
16194;BME280;8204;53.582;10.080;2022-09-16T03:51:21;98075.00;;;12.38;100.00
16194;BME280;8204;53.582;10.080;2022-09-16T03:53:48;98071.88;;;12.41;100.00
16194;BME280;8204;53.582;10.080;2022-09-16T03:56:14;98072.44;;;12.43;100.00
16194;BME280;8204;53.582;10.080;2022-09-16T03:58:41;98075.63;;;12.45;100.00
16194;BME280;8204;53.582;10.080;2022-09-16T04:01:07;98077.72;;;12.43;100.00
16194;BME280;8204;53.582;10.080;2022-09-16T04:03:34;98072.44;;;12.43;100.00
16194;BME280;8204;53.582;10.080;2022-09-16T04:06:02;98080.09;;;12.45;100.00
16194;BME280;8204;53.582;10.080;2022-09-16T04:08:30;98088.75;;;12.45;100.00
16194;BME280;8204;53.582;10.080;2022-09-16T04:10:58;98091.19;;;12.36;100.00
16194;BME280;8204;53.582;10.080;2022-09-16T04:13:29;98110.28;;;12.31;100.00
16194;BME280;8204;53.582;10.080;2022-09-16T04:15:55;98061.75;;;12.34;100.00
16194;BME280;8204;53.582;10.080;2022-09-16T04:18:22;98022.28;;;12.29;100.00
16194;BME280;8204;53.582;10.080;2022-09-16T04:20:49;97978.34;;;12.24;100.00
16194;BME280;8204;53.582;10.080;2022-09-16T04:23:15;97891.94;;;12.23;100.00
16194;BME280;8204;53.582;10.080;2022-09-16T04:25:43;98047.88;;;12.22;100.00
16194;BME280;8204;53.582;10.080;2022-09-16T04:28:09;98099.38;;;12.11;100.00
16194;BME280;8204;53.582;10.080;2022-09-16T04:30:36;98095.38;;;12.09;100.00
16194;BME280;8204;53.582;10.080;2022-09-16T04:33:02;97875.94;;;12.08;100.00
16194;BME280;8204;53.582;10.080;2022-09-16T04:35:29;97804.28;;;12.07;100.00
16194;BME280;8204;53.582;10.080;2022-09-16T04:37:56;97765.19;;;12.06;100.00
16194;BME280;8204;53.582;10.080;2022-09-16T04:40:22;97731.28;;;12.04;100.00
16194;BME280;8204;53.582;10.080;2022-09-16T04:42:50;97476.53;;;12.11;100.00
16194;BME280;8204;53.582;10.080;2022-09-16T04:45:17;97391.00;;;12.15;100.00
16194;BME280;8204;53.582;10.080;2022-09-16T04:47:43;97349.03;;;12.15;100.00
16194;BME280;8204;53.582;10.080;2022-09-16T04:50:10;97324.06;;;12.12;100.00
16194;BME280;8204;53.582;10.080;2022-09-16T04:52:37;97307.03;;;12.15;100.00
16194;BME280;8204;53.582;10.080;2022-09-16T04:55:04;97284.44;;;12.14;100.00
16194;BME280;8204;53.582;10.080;2022-09-16T04:57:31;97262.69;;;12.18;100.00
16194;BME280;8204;53.582;10.080;2022-09-16T04:59:59;97226.50;;;12.20;100.00
16194;BME280;8204;53.582;10.080;2022-09-16T05:02:26;97206.06;;;12.27;100.00
16194;BME280;8204;53.582;10.080;2022-09-16T05:04:53;97197.66;;;12.25;100.00
16194;BME280;8204;53.582;10.080;2022-09-16T05:07:19;97213.91;;;12.22;100.00
16194;BME280;8204;53.582;10.080;2022-09-16T05:09:46;97227.81;;;12.18;100.00
16194;BME280;8204;53.582;10.080;2022-09-16T05:12:12;97209.44;;;12.23;100.00
16194;BME280;8204;53.582;10.080;2022-09-16T05:14:39;97213.63;;;12.19;100.00
16194;BME280;8204;53.582;10.080;2022-09-16T05:17:06;97221.75;;;12.17;100.00
16194;BME280;8204;53.582;10.080;2022-09-16T05:19:33;97200.53;;;12.24;100.00
16194;BME280;8204;53.582;10.080;2022-09-16T05:21:59;97209.16;;;12.19;100.00
16194;BME280;8204;53.582;10.080;2022-09-16T05:24:32;97210.97;;;12.14;100.00
16194;BME280;8204;53.582;10.080;2022-09-16T05:26:59;97204.41;;;12.16;100.00
16194;BME280;8204;53.582;10.080;2022-09-16T05:29:26;97201.56;;;12.18;100.00
16194;BME280;8204;53.582;10.080;2022-09-16T05:31:52;97212.81;;;12.13;100.00
16194;BME280;8204;53.582;10.080;2022-09-16T05:34:21;97199.69;;;12.13;100.00
16194;BME280;8204;53.582;10.080;2022-09-16T05:36:53;97209.13;;;12.09;100.00
16194;BME280;8204;53.582;10.080;2022-09-16T05:39:21;97187.38;;;12.19;100.00
16194;BME280;8204;53.582;10.080;2022-09-16T05:41:48;97185.06;;;12.22;100.00
16194;BME280;8204;53.582;10.080;2022-09-16T05:44:15;97180.09;;;12.26;100.00
16194;BME280;8204;53.582;10.080;2022-09-16T05:46:42;97162.22;;;12.33;100.00
16194;BME280;8204;53.582;10.080;2022-09-16T05:49:09;97181.13;;;12.25;100.00
16194;BME280;8204;53.582;10.080;2022-09-16T05:51:38;97177.47;;;12.26;100.00
16194;BME280;8204;53.582;10.080;2022-09-16T05:54:06;97173.53;;;12.33;100.00
16194;BME280;8204;53.582;10.080;2022-09-16T05:56:32;97188.25;;;12.34;100.00
16194;BME280;8204;53.582;10.080;2022-09-16T05:59:00;97204.25;;;12.33;100.00
16194;BME280;8204;53.582;10.080;2022-09-16T06:01:28;97198.00;;;12.38;100.00
16194;BME280;8204;53.582;10.080;2022-09-16T06:03:55;97222.63;;;12.33;100.00
16194;BME280;8204;53.582;10.080;2022-09-16T06:06:24;97231.50;;;12.27;100.00
16194;BME280;8204;53.582;10.080;2022-09-16T06:08:53;97251.44;;;12.23;100.00
16194;BME280;8204;53.582;10.080;2022-09-16T06:11:20;97254.84;;;12.23;100.00
16194;BME280;8204;53.582;10.080;2022-09-16T06:13:46;97259.91;;;12.35;100.00
16194;BME280;8204;53.582;10.080;2022-09-16T06:16:13;97250.75;;;12.37;100.00
16194;BME280;8204;53.582;10.080;2022-09-16T06:18:58;97250.75;;;12.37;100.00
16194;BME280;8204;53.582;10.080;2022-09-16T06:21:26;97268.31;;;12.32;100.00
16194;BME280;8204;53.582;10.080;2022-09-16T06:23:54;97269.41;;;12.40;100.00
16194;BME280;8204;53.582;10.080;2022-09-16T06:26:22;97291.72;;;12.38;100.00
16194;BME280;8204;53.582;10.080;2022-09-16T06:28:50;97309.75;;;12.25;100.00
16194;BME280;8204;53.582;10.080;2022-09-16T06:31:18;97297.19;;;12.32;100.00
16194;BME280;8204;53.582;10.080;2022-09-16T06:33:45;97286.13;;;12.30;100.00
16194;BME280;8204;53.582;10.080;2022-09-16T06:36:13;97263.63;;;12.38;100.00
16194;BME280;8204;53.582;10.080;2022-09-16T06:38:40;97261.75;;;12.34;100.00
16194;BME280;8204;53.582;10.080;2022-09-16T06:41:10;97256.28;;;12.45;100.00
16194;BME280;8204;53.582;10.080;2022-09-16T06:43:37;97256.28;;;12.45;100.00
16194;BME280;8204;53.582;10.080;2022-09-16T06:46:06;97273.41;;;12.48;100.00
16194;BME280;8204;53.582;10.080;2022-09-16T06:48:34;97286.84;;;12.56;100.00
16194;BME280;8204;53.582;10.080;2022-09-16T06:51:03;97339.81;;;12.48;100.00
16194;BME280;8204;53.582;10.080;2022-09-16T06:53:30;97378.19;;;12.49;100.00
16194;BME280;8204;53.582;10.080;2022-09-16T06:55:59;97384.53;;;12.58;100.00
16194;BME280;8204;53.582;10.080;2022-09-16T06:58:27;97394.28;;;12.63;100.00
16194;BME280;8204;53.582;10.080;2022-09-16T07:00:54;97383.00;;;12.62;100.00
16194;BME280;8204;53.582;10.080;2022-09-16T07:03:21;97425.22;;;12.56;100.00
16194;BME280;8204;53.582;10.080;2022-09-16T07:05:54;97425.00;;;12.57;100.00
16194;BME280;8204;53.582;10.080;2022-09-16T07:08:22;97449.69;;;12.61;100.00
16194;BME280;8204;53.582;10.080;2022-09-16T07:10:55;97467.34;;;12.66;100.00
16194;BME280;8204;53.582;10.080;2022-09-16T07:13:21;97458.22;;;12.78;100.00
16194;BME280;8204;53.582;10.080;2022-09-16T07:15:49;97499.19;;;12.74;100.00
16194;BME280;8204;53.582;10.080;2022-09-16T07:18:15;97472.19;;;12.84;100.00
16194;BME280;8204;53.582;10.080;2022-09-16T07:20:42;97489.81;;;12.83;100.00
16194;BME280;8204;53.582;10.080;2022-09-16T07:23:08;97532.31;;;12.75;100.00
16194;BME280;8204;53.582;10.080;2022-09-16T07:25:35;97559.91;;;12.78;100.00
16194;BME280;8204;53.582;10.080;2022-09-16T07:28:02;97558.38;;;12.82;100.00
16194;BME280;8204;53.582;10.080;2022-09-16T07:30:28;97580.84;;;12.94;100.00
16194;BME280;8204;53.582;10.080;2022-09-16T07:32:59;97583.53;;;12.99;100.00
16194;BME280;8204;53.582;10.080;2022-09-16T07:35:26;97648.19;;;13.00;100.00
16194;BME280;8204;53.582;10.080;2022-09-16T07:37:52;97681.09;;;13.08;100.00
16194;BME280;8204;53.582;10.080;2022-09-16T07:40:19;97752.94;;;13.13;100.00
16194;BME280;8204;53.582;10.080;2022-09-16T07:42:45;97748.34;;;13.25;100.00
16194;BME280;8204;53.582;10.080;2022-09-16T07:45:11;97728.16;;;13.30;100.00
16194;BME280;8204;53.582;10.080;2022-09-16T07:47:38;97721.16;;;13.41;100.00
16194;BME280;8204;53.582;10.080;2022-09-16T07:50:07;97774.78;;;13.40;100.00
16194;BME280;8204;53.582;10.080;2022-09-16T07:52:33;97835.84;;;13.42;100.00
16194;BME280;8204;53.582;10.080;2022-09-16T07:55:00;97869.53;;;13.45;100.00
16194;BME280;8204;53.582;10.080;2022-09-16T07:57:26;97889.06;;;13.49;100.00
16194;BME280;8204;53.582;10.080;2022-09-16T07:59:52;97928.56;;;13.54;100.00
16194;BME280;8204;53.582;10.080;2022-09-16T08:02:19;97960.75;;;13.61;100.00
16194;BME280;8204;53.582;10.080;2022-09-16T08:04:45;97939.81;;;13.71;100.00
16194;BME280;8204;53.582;10.080;2022-09-16T08:07:13;98004.16;;;13.80;100.00
16194;BME280;8204;53.582;10.080;2022-09-16T08:09:40;98055.63;;;13.92;100.00
16194;BME280;8204;53.582;10.080;2022-09-16T08:12:07;98049.09;;;13.94;100.00
16194;BME280;8204;53.582;10.080;2022-09-16T08:14:35;98083.38;;;13.99;100.00
16194;BME280;8204;53.582;10.080;2022-09-16T08:17:01;98211.19;;;13.90;100.00
16194;BME280;8204;53.582;10.080;2022-09-16T08:19:28;98223.72;;;13.83;100.00
16194;BME280;8204;53.582;10.080;2022-09-16T08:21:55;98204.31;;;13.89;100.00
16194;BME280;8204;53.582;10.080;2022-09-16T08:24:22;98218.13;;;13.96;100.00
16194;BME280;8204;53.582;10.080;2022-09-16T08:26:49;98260.88;;;14.03;100.00
16194;BME280;8204;53.582;10.080;2022-09-16T08:29:15;98310.84;;;13.98;100.00
16194;BME280;8204;53.582;10.080;2022-09-16T08:31:42;98361.63;;;14.10;100.00
16194;BME280;8204;53.582;10.080;2022-09-16T08:34:08;98532.34;;;14.13;100.00
16194;BME280;8204;53.582;10.080;2022-09-16T08:36:35;98544.59;;;14.19;100.00
16194;BME280;8204;53.582;10.080;2022-09-16T08:39:02;98596.09;;;14.27;100.00
16194;BME280;8204;53.582;10.080;2022-09-16T08:41:47;98549.19;;;14.40;100.00
16194;BME280;8204;53.582;10.080;2022-09-16T08:44:20;98494.03;;;14.50;100.00
16194;BME280;8204;53.582;10.080;2022-09-16T08:46:51;98537.31;;;14.54;100.00
16194;BME280;8204;53.582;10.080;2022-09-16T08:49:25;98600.56;;;14.54;100.00
16194;BME280;8204;53.582;10.080;2022-09-16T08:51:53;98678.41;;;14.57;100.00
16194;BME280;8204;53.582;10.080;2022-09-16T08:54:25;98755.72;;;14.62;100.00
16194;BME280;8204;53.582;10.080;2022-09-16T08:56:57;98751.69;;;14.71;100.00
16194;BME280;8204;53.582;10.080;2022-09-16T08:59:27;98734.41;;;14.63;100.00
16194;BME280;8204;53.582;10.080;2022-09-16T09:01:58;98779.00;;;14.65;100.00
16194;BME280;8204;53.582;10.080;2022-09-16T09:04:26;98716.16;;;14.73;100.00
16194;BME280;8204;53.582;10.080;2022-09-16T09:06:58;98618.69;;;14.78;100.00
16194;BME280;8204;53.582;10.080;2022-09-16T09:09:45;98651.81;;;14.86;100.00
16194;BME280;8204;53.582;10.080;2022-09-16T09:12:21;98725.72;;;14.91;100.00
16194;BME280;8204;53.582;10.080;2022-09-16T09:15:04;98783.84;;;14.96;100.00
16194;BME280;8204;53.582;10.080;2022-09-16T09:17:42;98760.34;;;14.94;100.00
16194;BME280;8204;53.582;10.080;2022-09-16T09:20:19;98746.88;;;15.07;100.00
16194;BME280;8204;53.582;10.080;2022-09-16T09:23:00;98794.81;;;15.16;100.00
16194;BME280;8204;53.582;10.080;2022-09-16T09:25:34;98867.97;;;15.20;100.00
16194;BME280;8204;53.582;10.080;2022-09-16T09:28:17;98874.19;;;15.26;100.00
16194;BME280;8204;53.582;10.080;2022-09-16T09:30:55;98929.94;;;15.18;100.00
16194;BME280;8204;53.582;10.080;2022-09-16T09:33:32;98904.25;;;15.25;100.00
16194;BME280;8204;53.582;10.080;2022-09-16T09:39:18;98179.53;;;14.82;100.00
16194;BME280;8204;53.582;10.080;2022-09-16T09:41:50;97940.28;;;14.68;100.00
16194;BME280;8204;53.582;10.080;2022-09-16T09:44:32;97829.41;;;14.43;100.00
16194;BME280;8204;53.582;10.080;2022-09-16T09:47:03;97799.84;;;14.36;100.00
16194;BME280;8204;53.582;10.080;2022-09-16T09:49:32;97806.56;;;14.17;100.00
16194;BME280;8204;53.582;10.080;2022-09-16T09:52:05;97735.44;;;14.12;100.00
16194;BME280;8204;53.582;10.080;2022-09-16T09:54:34;97746.53;;;14.14;100.00
16194;BME280;8204;53.582;10.080;2022-09-16T09:57:04;97813.56;;;14.07;100.00
16194;BME280;8204;53.582;10.080;2022-09-16T09:59:37;97969.47;;;14.09;100.00
16194;BME280;8204;53.582;10.080;2022-09-16T10:02:13;97972.88;;;14.09;100.00
16194;BME280;8204;53.582;10.080;2022-09-16T10:04:41;98033.25;;;14.11;100.00
16194;BME280;8204;53.582;10.080;2022-09-16T10:07:09;98128.44;;;14.19;100.00
16194;BME280;8204;53.582;10.080;2022-09-16T10:09:46;98357.66;;;14.24;100.00
16194;BME280;8204;53.582;10.080;2022-09-16T10:12:13;98462.72;;;14.37;100.00
16194;BME280;8204;53.582;10.080;2022-09-16T10:14:44;98440.06;;;14.53;100.00
16194;BME280;8204;53.582;10.080;2022-09-16T10:17:14;98606.63;;;14.66;100.00
16194;BME280;8204;53.582;10.080;2022-09-16T10:19:50;98743.97;;;14.81;100.00
16194;BME280;8204;53.582;10.080;2022-09-16T10:22:20;98797.38;;;14.88;100.00
16194;BME280;8204;53.582;10.080;2022-09-16T10:24:52;98764.34;;;14.97;100.00
16194;BME280;8204;53.582;10.080;2022-09-16T10:27:21;98771.41;;;15.08;100.00
16194;BME280;8204;53.582;10.080;2022-09-16T10:30:04;98772.31;;;15.25;100.00
16194;BME280;8204;53.582;10.080;2022-09-16T10:32:32;98844.00;;;15.33;100.00
16194;BME280;8204;53.582;10.080;2022-09-16T10:35:06;98863.00;;;15.46;100.00
16194;BME280;8204;53.582;10.080;2022-09-16T10:37:33;98911.75;;;15.55;100.00
16194;BME280;8204;53.582;10.080;2022-09-16T10:40:00;98945.03;;;15.68;100.00
16194;BME280;8204;53.582;10.080;2022-09-16T10:42:32;99103.31;;;15.74;100.00
16194;BME280;8204;53.582;10.080;2022-09-16T10:45:05;99185.75;;;15.88;100.00
16194;BME280;8204;53.582;10.080;2022-09-16T10:47:39;99172.56;;;15.99;100.00
16194;BME280;8204;53.582;10.080;2022-09-16T10:50:06;99292.63;;;16.03;100.00
16194;BME280;8204;53.582;10.080;2022-09-16T10:52:41;99262.50;;;16.15;100.00
16194;BME280;8204;53.582;10.080;2022-09-16T10:55:20;99304.47;;;16.23;100.00
16194;BME280;8204;53.582;10.080;2022-09-16T10:57:47;99317.84;;;16.40;100.00
16194;BME280;8204;53.582;10.080;2022-09-16T11:00:16;99356.34;;;16.47;100.00
16194;BME280;8204;53.582;10.080;2022-09-16T11:02:58;99431.91;;;16.55;100.00
16194;BME280;8204;53.582;10.080;2022-09-16T11:05:32;99441.91;;;16.64;100.00
16194;BME280;8204;53.582;10.080;2022-09-16T11:08:11;99439.75;;;16.73;100.00
16194;BME280;8204;53.582;10.080;2022-09-16T11:10:43;99451.13;;;16.84;100.00
16194;BME280;8204;53.582;10.080;2022-09-16T11:13:20;99455.50;;;16.90;100.00
16194;BME280;8204;53.582;10.080;2022-09-16T11:16:09;99425.72;;;17.06;100.00
16194;BME280;8204;53.582;10.080;2022-09-16T11:18:48;99497.97;;;17.18;100.00
16194;BME280;8204;53.582;10.080;2022-09-16T11:21:40;99467.91;;;17.24;100.00
16194;BME280;8204;53.582;10.080;2022-09-16T11:24:28;99528.81;;;17.01;100.00
16194;BME280;8204;53.582;10.080;2022-09-16T11:27:02;99090.94;;;16.25;100.00
16194;BME280;8204;53.582;10.080;2022-09-16T11:29:56;98369.09;;;15.43;100.00
16194;BME280;8204;53.582;10.080;2022-09-16T11:32:37;98222.00;;;14.86;100.00
16194;BME280;8204;53.582;10.080;2022-09-16T11:35:26;98083.81;;;14.56;100.00
16194;BME280;8204;53.582;10.080;2022-09-16T11:38:00;98061.47;;;14.37;100.00
16194;BME280;8204;53.582;10.080;2022-09-16T11:40:33;98009.69;;;14.26;100.00
16194;BME280;8204;53.582;10.080;2022-09-16T11:43:18;97923.03;;;14.24;100.00
16194;BME280;8204;53.582;10.080;2022-09-16T11:45:52;97912.25;;;14.26;100.00
16194;BME280;8204;53.582;10.080;2022-09-16T11:48:34;97892.88;;;14.37;100.00
16194;BME280;8204;53.582;10.080;2022-09-16T11:51:09;97885.03;;;14.47;100.00
16194;BME280;8204;53.582;10.080;2022-09-16T11:53:59;98117.94;;;14.46;100.00
16194;BME280;8204;53.582;10.080;2022-09-16T11:56:35;98343.09;;;14.55;100.00
16194;BME280;8204;53.582;10.080;2022-09-16T11:59:11;98313.59;;;14.74;100.00
16194;BME280;8204;53.582;10.080;2022-09-16T12:01:42;98353.03;;;15.07;100.00
16194;BME280;8204;53.582;10.080;2022-09-16T12:04:16;98508.34;;;15.36;100.00
16194;BME280;8204;53.582;10.080;2022-09-16T12:06:51;98630.78;;;15.68;100.00
16194;BME280;8204;53.582;10.080;2022-09-16T12:09:25;98802.03;;;15.92;100.00
16194;BME280;8204;53.582;10.080;2022-09-16T12:12:02;98971.44;;;16.23;100.00
16194;BME280;8204;53.582;10.080;2022-09-16T12:14:35;99112.88;;;16.37;100.00
16194;BME280;8204;53.582;10.080;2022-09-16T12:17:05;99172.47;;;16.68;100.00
16194;BME280;8204;53.582;10.080;2022-09-16T12:19:40;99255.06;;;16.97;100.00
16194;BME280;8204;53.582;10.080;2022-09-16T12:22:14;99327.22;;;17.44;100.00
16194;BME280;8204;53.582;10.080;2022-09-16T12:24:46;99411.66;;;17.29;100.00
16194;BME280;8204;53.582;10.080;2022-09-16T12:27:24;99393.53;;;17.26;100.00
16194;BME280;8204;53.582;10.080;2022-09-16T12:29:55;99203.00;;;17.14;100.00
16194;BME280;8204;53.582;10.080;2022-09-16T12:32:31;98710.66;;;16.45;100.00
16194;BME280;8204;53.582;10.080;2022-09-16T12:35:02;98177.66;;;15.98;100.00
16194;BME280;8204;53.582;10.080;2022-09-16T12:37:34;97852.59;;;15.24;100.00
16194;BME280;8204;53.582;10.080;2022-09-16T12:40:03;97597.91;;;14.71;100.00
16194;BME280;8204;53.582;10.080;2022-09-16T12:43:00;97423.44;;;14.40;100.00
16194;BME280;8204;53.582;10.080;2022-09-16T12:45:53;97253.56;;;14.37;100.00
16194;BME280;8204;53.582;10.080;2022-09-16T12:48:39;97135.00;;;14.42;100.00
16194;BME280;8204;53.582;10.080;2022-09-16T12:51:26;97005.59;;;14.54;100.00
16194;BME280;8204;53.582;10.080;2022-09-16T12:57:03;96812.53;;;14.76;100.00
16194;BME280;8204;53.582;10.080;2022-09-16T12:59:46;96759.25;;;14.79;100.00
16194;BME280;8204;53.582;10.080;2022-09-16T13:02:18;96767.28;;;14.69;100.00
16194;BME280;8204;53.582;10.080;2022-09-16T13:04:48;96863.34;;;14.54;100.00
16194;BME280;8204;53.582;10.080;2022-09-16T13:07:21;96907.50;;;14.33;100.00
16194;BME280;8204;53.582;10.080;2022-09-16T13:09:48;97075.09;;;14.14;100.00
16194;BME280;8204;53.582;10.080;2022-09-16T13:12:26;97039.81;;;14.10;100.00
16194;BME280;8204;53.582;10.080;2022-09-16T13:14:54;97039.81;;;14.10;100.00
16194;BME280;8204;53.582;10.080;2022-09-16T13:17:30;97036.63;;;14.08;100.00